createdAt,value
2019-03-06T00:02:43.836Z,20.07
2019-03-06T00:06:58.191Z,22.00
2019-03-06T00:11:12.687Z,22.33
2019-03-06T00:15:27.110Z,22.93
2019-03-06T00:19:41.505Z,25.97
2019-03-06T00:23:56.224Z,28.43
2019-03-06T00:28:10.717Z,27.13
2019-03-06T00:32:25.110Z,27.63
2019-03-06T00:36:39.578Z,30.93
2019-03-06T00:41:00.526Z,33.33
2019-03-06T00:45:21.471Z,32.70
2019-03-06T00:49:42.294Z,34.17
2019-03-06T00:53:56.783Z,35.47
2019-03-06T00:57:57.980Z,35.40
2019-03-06T01:02:18.750Z,40.33
2019-03-06T01:06:39.695Z,37.80
2019-03-06T01:11:00.424Z,40.57
2019-03-06T01:15:21.176Z,36.93
2019-03-06T01:19:42.240Z,39.47
2019-03-06T01:24:03.155Z,38.53
2019-03-06T01:28:23.980Z,37.70
2019-03-06T01:37:33.386Z,38.77
2019-03-06T01:46:23.765Z,33.67
2019-03-06T01:50:44.623Z,28.50
2019-03-06T01:54:59.228Z,38.93
2019-03-06T01:59:13.948Z,42.87
2019-03-06T02:03:28.511Z,44.80
2019-03-06T02:07:29.583Z,45.07
2019-03-06T02:11:30.437Z,46.87
2019-03-06T02:15:51.295Z,47.20
2019-03-06T02:20:33.795Z,49.80
2019-03-06T02:24:54.639Z,53.87
2019-03-06T02:29:15.409Z,57.53
2019-03-06T02:33:36.165Z,63.37
2019-03-06T02:37:57.148Z,69.30
2019-03-06T02:42:18.039Z,61.83
2019-03-06T02:46:39.157Z,62.97
2019-03-06T02:50:59.884Z,66.07
2019-03-06T02:55:14.439Z,66.70
2019-03-06T03:04:17.575Z,73.80
2019-03-06T03:08:38.404Z,62.83
2019-03-06T03:12:59.158Z,66.27
2019-03-06T03:17:00.204Z,69.13
2019-03-06T03:21:20.966Z,67.03
2019-03-06T03:25:41.913Z,67.07
2019-03-06T03:30:24.560Z,65.23
2019-03-06T03:34:45.360Z,65.70
2019-03-06T03:39:06.372Z,61.40
2019-03-06T03:43:27.110Z,53.77
2019-03-06T03:47:48.053Z,61.90
2019-03-06T03:52:01.779Z,62.53
2019-03-06T03:56:16.506Z,58.40
2019-03-06T04:00:31.391Z,55.47
2019-03-06T04:04:32.362Z,56.43
2019-03-06T04:08:53.115Z,51.73
2019-03-06T04:13:13.973Z,50.27
2019-03-06T04:17:34.803Z,48.77
2019-03-06T04:21:55.638Z,51.57
2019-03-06T04:26:16.667Z,53.93
2019-03-06T04:30:37.409Z,51.60
2019-03-06T04:34:58.355Z,42.70
2019-03-06T04:39:19.191Z,46.70
2019-03-06T04:43:40.017Z,45.00
2019-03-06T04:48:00.898Z,45.78
2019-03-06T04:52:15.787Z,39.77
2019-03-06T04:56:29.798Z,36.90
2019-03-06T05:00:30.902Z,41.13
2019-03-06T05:04:51.652Z,50.93
2019-03-06T05:09:12.516Z,40.37
2019-03-06T05:13:33.240Z,42.43
2019-03-06T05:18:13.834Z,39.53
2019-03-06T05:22:34.738Z,45.40
2019-03-06T05:26:55.594Z,44.00
2019-03-06T05:31:16.325Z,38.33
2019-03-06T05:35:56.946Z,36.90
2019-03-06T05:40:17.806Z,38.33
2019-03-06T05:44:38.536Z,38.70
2019-03-06T05:48:59.366Z,41.20
2019-03-06T05:53:00.383Z,33.97
2019-03-06T05:57:21.226Z,39.27
2019-03-06T06:01:41.949Z,44.33
2019-03-06T06:05:42.833Z,32.13
2019-03-06T06:10:05.001Z,34.07
2019-03-06T06:14:25.757Z,32.07
2019-03-06T06:18:46.531Z,32.13
2019-03-06T06:23:27.254Z,30.50
2019-03-06T06:27:48.117Z,30.20
2019-03-06T06:32:08.888Z,34.27
2019-03-06T06:36:29.752Z,28.73
2019-03-06T06:40:50.498Z,29.20
2019-03-06T06:45:12.346Z,26.60
2019-03-06T06:49:33.096Z,27.60
2019-03-06T06:53:47.733Z,27.50
2019-03-06T06:58:02.260Z,28.07
2019-03-06T07:06:47.315Z,28.70
2019-03-06T07:11:03.966Z,27.50
2019-03-06T07:15:20.576Z,31.20
2019-03-06T07:28:34.507Z,32.50
2019-03-06T07:32:50.986Z,30.53
2019-03-06T07:37:07.752Z,31.77
2019-03-06T07:41:24.402Z,27.90
2019-03-06T07:45:43.629Z,27.47
2019-03-06T07:50:02.377Z,25.43
2019-03-06T07:54:21.013Z,26.60
2019-03-06T07:58:34.945Z,25.83
2019-03-06T08:02:57.404Z,24.97
2019-03-06T08:07:18.151Z,22.60
2019-03-06T08:20:56.179Z,22.03
2019-03-06T08:25:37.023Z,21.00
2019-03-06T08:29:57.929Z,18.50
2019-03-06T08:34:18.826Z,18.30
2019-03-06T08:38:39.969Z,16.73
2019-03-06T08:43:00.721Z,16.70
2019-03-06T08:52:10.251Z,16.40
2019-03-06T08:56:29.755Z,15.43
2019-03-06T09:01:04.506Z,15.33
2019-03-06T09:09:49.776Z,11.30
2019-03-06T09:14:24.354Z,9.90
2019-03-06T09:18:58.044Z,7.83
2019-03-06T09:23:31.795Z,8.40
2019-03-06T09:28:06.241Z,7.30
2019-03-06T09:32:40.011Z,7.67
2019-03-06T09:37:13.781Z,9.87
2019-03-06T09:41:29.844Z,10.13
2019-03-06T09:50:19.589Z,5.63
2019-03-06T09:54:55.105Z,8.73
2019-03-06T09:59:29.565Z,6.77
2019-03-06T10:04:03.421Z,9.03
2019-03-06T10:08:19.335Z,7.17
2019-03-06T10:12:36.014Z,5.77
2019-03-06T10:16:52.399Z,5.87
2019-03-06T10:21:07.066Z,6.47
2019-03-06T10:25:29.742Z,7.07
2019-03-06T10:29:37.605Z,5.80
2019-03-06T10:33:51.608Z,5.03
2019-03-06T10:37:52.752Z,3.83
2019-03-06T10:42:13.703Z,10.73
2019-03-06T10:46:14.871Z,4.37
2019-03-06T10:50:35.712Z,6.07
2019-03-06T10:54:50.226Z,7.20
2019-03-06T10:59:05.038Z,6.13
2019-03-06T11:03:19.687Z,4.27
2019-03-06T11:07:34.088Z,5.57
2019-03-06T11:11:48.877Z,4.43
2019-03-06T11:16:03.544Z,5.90
2019-03-06T11:20:26.281Z,7.07
2019-03-06T11:24:48.989Z,3.93
2019-03-06T11:29:10.105Z,6.13
2019-03-06T11:33:31.048Z,5.03
2019-03-06T11:37:51.984Z,5.70
2019-03-06T11:42:12.895Z,6.47
2019-03-06T11:46:33.760Z,5.60
2019-03-06T11:50:54.724Z,7.47
2019-03-06T11:55:09.715Z,7.07
2019-03-06T11:59:10.990Z,7.87
2019-03-06T12:03:31.753Z,4.73
2019-03-06T12:07:52.563Z,3.73
2019-03-06T12:12:13.628Z,5.37
2019-03-06T12:16:41.617Z,4.40
2019-03-06T12:20:57.167Z,2.43
2019-03-06T12:25:17.990Z,3.93
2019-03-06T12:29:38.967Z,6.13
2019-03-06T12:33:59.834Z,3.33
2019-03-06T12:38:20.885Z,5.27
2019-03-06T12:42:41.754Z,2.87
2019-03-06T12:47:02.687Z,5.57
2019-03-06T12:51:23.598Z,3.63
2019-03-06T12:55:37.870Z,4.90
2019-03-06T12:59:52.344Z,3.30
2019-03-06T13:03:53.430Z,2.67
2019-03-06T13:08:19.661Z,3.43
2019-03-06T13:12:38.232Z,2.83
2019-03-06T13:16:59.918Z,3.27
2019-03-06T13:21:20.767Z,2.83
2019-03-06T13:26:09.995Z,4.13
2019-03-06T13:30:27.015Z,5.03
2019-03-06T13:34:51.515Z,2.67
2019-03-06T13:38:54.926Z,5.47
2019-03-06T13:43:13.820Z,6.33
2019-03-06T13:47:34.857Z,5.83
2019-03-06T13:51:55.765Z,3.13
2019-03-06T13:56:09.698Z,5.47
2019-03-06T14:00:24.247Z,5.40
2019-03-06T14:04:38.844Z,2.47
2019-03-06T14:08:53.463Z,2.90
2019-03-06T14:12:54.481Z,3.80
2019-03-06T14:17:15.409Z,7.27
2019-03-06T14:21:36.555Z,4.77
2019-03-06T14:25:57.497Z,4.40
2019-03-06T14:30:40.118Z,2.93
2019-03-06T14:35:01.022Z,2.50
2019-03-06T14:39:43.663Z,2.87
2019-03-06T14:44:04.504Z,2.17
2019-03-06T14:48:25.507Z,6.33
2019-03-06T14:52:46.475Z,1.33
2019-03-06T14:57:00.899Z,3.20
2019-03-06T15:01:15.633Z,3.00
2019-03-06T15:05:30.480Z,2.70
2019-03-06T15:09:45.290Z,3.10
2019-03-06T15:13:59.792Z,2.07
2019-03-06T15:18:10.145Z,2.13
2019-03-06T15:22:23.554Z,2.80
2019-03-06T15:31:06.259Z,3.70
2019-03-06T15:35:08.991Z,2.50
2019-03-06T15:39:19.830Z,4.93
2019-03-06T15:43:21.517Z,1.83
2019-03-06T15:47:22.715Z,2.67
2019-03-06T15:51:23.674Z,5.83
2019-03-06T15:55:27.083Z,6.27
2019-03-06T15:59:28.284Z,3.53
2019-03-06T16:03:29.299Z,2.53
2019-03-06T16:07:30.369Z,1.80
2019-03-06T16:11:31.374Z,1.87
2019-03-06T16:15:32.553Z,3.17
2019-03-06T16:19:33.855Z,2.93
2019-03-06T16:23:34.948Z,2.63
2019-03-06T16:27:36.024Z,5.57
2019-03-06T16:31:37.133Z,7.50
2019-03-06T16:35:38.263Z,3.93
2019-03-06T16:39:39.286Z,2.13
2019-03-06T16:43:40.390Z,2.07
2019-03-06T16:47:41.365Z,2.87
2019-03-06T16:51:42.363Z,4.90
2019-03-06T16:55:43.688Z,2.10
2019-03-06T16:59:44.694Z,2.50
2019-03-06T17:03:45.942Z,2.73
2019-03-06T17:07:49.024Z,3.40
2019-03-06T17:11:50.312Z,4.20
2019-03-06T17:15:51.612Z,6.13
2019-03-06T17:19:52.735Z,4.27
2019-03-06T17:23:53.822Z,3.93
2019-03-06T17:27:55.011Z,2.17
2019-03-06T17:31:56.139Z,5.20
2019-03-06T17:35:57.422Z,5.80
2019-03-06T17:39:58.400Z,3.53
2019-03-06T17:43:59.483Z,2.97
2019-03-06T17:48:00.943Z,2.67
2019-03-06T17:52:02.352Z,3.03
2019-03-06T17:56:03.597Z,5.80
2019-03-06T18:00:16.641Z,6.50
2019-03-06T18:04:13.381Z,4.50
2019-03-06T18:08:14.463Z,3.27
2019-03-06T18:12:16.216Z,3.83
2019-03-06T18:16:17.538Z,4.97
2019-03-06T18:20:18.736Z,4.37
2019-03-06T18:24:19.634Z,5.50
2019-03-06T18:28:20.766Z,6.30
2019-03-06T18:32:23.610Z,5.17
2019-03-06T18:36:24.684Z,5.47
2019-03-06T18:40:26.236Z,6.57
2019-03-06T18:44:27.228Z,7.70
2019-03-06T18:48:28.439Z,7.93
2019-03-06T18:52:29.505Z,8.67
2019-03-06T18:56:30.515Z,5.57
2019-03-06T19:00:33.603Z,7.33
2019-03-06T19:04:34.744Z,9.43
2019-03-06T19:08:35.728Z,8.63
2019-03-06T19:12:36.758Z,10.10
2019-03-06T19:16:38.049Z,6.03
2019-03-06T19:20:39.160Z,7.83
2019-03-06T19:24:40.231Z,6.67
2019-03-06T19:28:41.397Z,8.03
2019-03-06T19:32:42.405Z,6.23
2019-03-06T19:36:43.511Z,6.33
2019-03-06T19:40:44.619Z,6.50
2019-03-06T19:44:45.822Z,4.90
2019-03-06T19:48:46.919Z,9.20
2019-03-06T19:52:48.317Z,8.20
2019-03-06T19:56:49.536Z,5.77
2019-03-06T20:00:50.764Z,9.47
2019-03-06T20:04:51.835Z,9.03
2019-03-06T20:08:52.781Z,5.80
2019-03-06T20:12:53.846Z,7.77
2019-03-06T20:16:54.964Z,8.20
2019-03-06T20:20:55.925Z,10.60
2019-03-06T20:24:56.971Z,11.47
2019-03-06T20:28:58.078Z,7.30
2019-03-06T20:32:59.293Z,6.53
2019-03-06T20:37:00.355Z,10.37
2019-03-06T20:41:01.265Z,6.00
2019-03-06T20:45:04.826Z,7.57
2019-03-06T20:49:05.843Z,8.93
2019-03-06T20:53:06.967Z,8.60
2019-03-06T20:57:07.955Z,7.90
2019-03-06T21:01:10.751Z,6.93
2019-03-06T21:05:12.310Z,7.07
2019-03-06T21:09:13.319Z,7.23
2019-03-06T21:13:15.135Z,6.03
2019-03-06T21:17:17.333Z,6.13
2019-03-06T21:21:18.518Z,6.23
2019-03-06T21:25:20.429Z,4.87
2019-03-06T21:29:21.793Z,8.47
2019-03-06T21:33:22.758Z,5.50
2019-03-06T21:37:24.057Z,6.27
2019-03-06T21:41:25.039Z,13.43
2019-03-06T21:45:26.113Z,9.83
2019-03-06T21:49:27.082Z,11.30
2019-03-06T21:53:28.159Z,15.13
2019-03-06T21:57:29.161Z,7.60
2019-03-06T22:01:30.141Z,4.60
2019-03-06T22:05:31.163Z,8.87
2019-03-06T22:09:32.228Z,8.43
2019-03-06T22:13:33.526Z,4.63
2019-03-06T22:17:34.586Z,11.47
2019-03-06T22:21:35.675Z,8.60
2019-03-06T22:25:36.658Z,4.13
2019-03-06T22:29:37.664Z,6.73
2019-03-06T22:33:38.819Z,7.47
2019-03-06T22:37:39.813Z,4.30
2019-03-06T22:41:40.877Z,5.03
2019-03-06T22:45:41.755Z,4.30
2019-03-06T22:49:42.634Z,3.23
2019-03-06T22:53:43.539Z,2.83
2019-03-06T22:57:44.638Z,4.10
2019-03-06T23:01:46.015Z,4.60
2019-03-06T23:05:47.390Z,4.77
2019-03-06T23:09:48.412Z,7.43
2019-03-06T23:13:49.705Z,3.63
2019-03-06T23:17:50.901Z,9.60
2019-03-06T23:21:51.997Z,4.13
2019-03-06T23:25:52.993Z,5.90
2019-03-06T23:29:54.076Z,4.43
2019-03-06T23:33:55.158Z,6.20
2019-03-06T23:37:56.101Z,4.43
2019-03-06T23:41:57.019Z,6.70
2019-03-06T23:45:57.956Z,5.13
2019-03-06T23:49:58.899Z,4.93
2019-03-06T23:53:59.777Z,6.37
2019-03-06T23:58:00.779Z,5.53
